sensor_id;sensor_type;location;lat;lon;timestamp;temperature;humidity
15717;DHT22;7960;50.908;4.204;2022-12-18T00:01:00;-2.80;99.90
15717;DHT22;7960;50.908;4.204;2022-12-18T00:03:31;-2.70;99.90
15717;DHT22;7960;50.908;4.204;2022-12-18T00:06:01;-2.70;99.90
15717;DHT22;7960;50.908;4.204;2022-12-18T00:08:28;-2.70;99.90
15717;DHT22;7960;50.908;4.204;2022-12-18T00:10:55;-2.80;99.90
15717;DHT22;7960;50.908;4.204;2022-12-18T00:13:22;-2.80;99.90
15717;DHT22;7960;50.908;4.204;2022-12-18T00:15:50;-2.90;99.90
15717;DHT22;7960;50.908;4.204;2022-12-18T00:18:17;-3.00;99.90
15717;DHT22;7960;50.908;4.204;2022-12-18T00:20:45;-3.10;99.90
15717;DHT22;7960;50.908;4.204;2022-12-18T00:23:12;-3.30;99.90
15717;DHT22;7960;50.908;4.204;2022-12-18T00:25:39;-3.40;99.90
15717;DHT22;7960;50.908;4.204;2022-12-18T00:28:07;-3.60;99.90
15717;DHT22;7960;50.908;4.204;2022-12-18T00:30:34;-3.60;99.90
15717;DHT22;7960;50.908;4.204;2022-12-18T00:33:02;-3.60;99.90
15717;DHT22;7960;50.908;4.204;2022-12-18T00:35:29;-3.60;99.90
15717;DHT22;7960;50.908;4.204;2022-12-18T00:38:03;-3.80;99.90
15717;DHT22;7960;50.908;4.204;2022-12-18T00:40:34;-4.00;99.90
15717;DHT22;7960;50.908;4.204;2022-12-18T00:43:00;-3.80;99.90
15717;DHT22;7960;50.908;4.204;2022-12-18T00:45:28;-3.80;99.90
15717;DHT22;7960;50.908;4.204;2022-12-18T00:47:57;-3.50;99.90
15717;DHT22;7960;50.908;4.204;2022-12-18T00:50:26;-3.50;99.90
15717;DHT22;7960;50.908;4.204;2022-12-18T00:52:53;-3.50;99.90
15717;DHT22;7960;50.908;4.204;2022-12-18T00:55:19;-3.60;99.90
15717;DHT22;7960;50.908;4.204;2022-12-18T00:57:46;-3.70;99.90
15717;DHT22;7960;50.908;4.204;2022-12-18T01:00:16;-3.50;99.90
15717;DHT22;7960;50.908;4.204;2022-12-18T01:02:44;-3.30;99.90
15717;DHT22;7960;50.908;4.204;2022-12-18T01:05:12;-3.20;99.90
15717;DHT22;7960;50.908;4.204;2022-12-18T01:07:41;-3.10;99.90
15717;DHT22;7960;50.908;4.204;2022-12-18T01:10:09;-3.10;99.90
15717;DHT22;7960;50.908;4.204;2022-12-18T01:12:38;-3.10;99.90
15717;DHT22;7960;50.908;4.204;2022-12-18T01:15:06;-3.20;99.90
15717;DHT22;7960;50.908;4.204;2022-12-18T01:17:34;-3.40;99.90
15717;DHT22;7960;50.908;4.204;2022-12-18T01:20:01;-3.40;99.90
15717;DHT22;7960;50.908;4.204;2022-12-18T01:22:28;-3.30;99.90
15717;DHT22;7960;50.908;4.204;2022-12-18T01:24:56;-3.20;99.90
15717;DHT22;7960;50.908;4.204;2022-12-18T01:27:23;-3.00;99.90
15717;DHT22;7960;50.908;4.204;2022-12-18T01:29:50;-3.00;99.90
15717;DHT22;7960;50.908;4.204;2022-12-18T01:32:17;-3.10;99.90
15717;DHT22;7960;50.908;4.204;2022-12-18T01:34:43;-3.00;99.90
15717;DHT22;7960;50.908;4.204;2022-12-18T01:37:10;-3.10;99.90
15717;DHT22;7960;50.908;4.204;2022-12-18T01:39:37;-3.10;99.90
15717;DHT22;7960;50.908;4.204;2022-12-18T01:42:09;-3.20;99.90
15717;DHT22;7960;50.908;4.204;2022-12-18T01:45:21;-3.30;99.90
15717;DHT22;7960;50.908;4.204;2022-12-18T01:47:51;-3.60;99.90
15717;DHT22;7960;50.908;4.204;2022-12-18T01:50:21;-3.90;99.90
15717;DHT22;7960;50.908;4.204;2022-12-18T01:52:50;-4.10;99.90
15717;DHT22;7960;50.908;4.204;2022-12-18T01:55:20;-4.10;99.90
15717;DHT22;7960;50.908;4.204;2022-12-18T01:57:49;-4.00;99.90
15717;DHT22;7960;50.908;4.204;2022-12-18T02:00:20;-4.00;99.90
15717;DHT22;7960;50.908;4.204;2022-12-18T02:02:48;-4.00;99.90
15717;DHT22;7960;50.908;4.204;2022-12-18T02:05:17;-4.00;99.90
15717;DHT22;7960;50.908;4.204;2022-12-18T02:07:53;-4.00;99.90
15717;DHT22;7960;50.908;4.204;2022-12-18T02:10:32;-4.00;99.90
15717;DHT22;7960;50.908;4.204;2022-12-18T02:13:11;-3.90;99.90
15717;DHT22;7960;50.908;4.204;2022-12-18T02:15:43;-3.80;99.90
15717;DHT22;7960;50.908;4.204;2022-12-18T02:18:13;-3.50;99.90
15717;DHT22;7960;50.908;4.204;2022-12-18T02:20:45;-3.70;99.90
15717;DHT22;7960;50.908;4.204;2022-12-18T02:23:24;-3.80;99.90
15717;DHT22;7960;50.908;4.204;2022-12-18T02:26:10;-3.80;99.90
15717;DHT22;7960;50.908;4.204;2022-12-18T02:28:42;-3.70;99.90
15717;DHT22;7960;50.908;4.204;2022-12-18T02:31:14;-3.70;99.90
15717;DHT22;7960;50.908;4.204;2022-12-18T02:33:42;-3.50;99.90
15717;DHT22;7960;50.908;4.204;2022-12-18T02:36:10;-3.60;99.90
15717;DHT22;7960;50.908;4.204;2022-12-18T02:38:39;-3.60;99.90
15717;DHT22;7960;50.908;4.204;2022-12-18T02:41:12;-3.70;99.90
15717;DHT22;7960;50.908;4.204;2022-12-18T02:43:40;-4.00;99.90
15717;DHT22;7960;50.908;4.204;2022-12-18T02:46:25;-4.00;99.90
15717;DHT22;7960;50.908;4.204;2022-12-18T02:48:57;-4.10;99.90
15717;DHT22;7960;50.908;4.204;2022-12-18T02:51:30;-4.20;99.90
15717;DHT22;7960;50.908;4.204;2022-12-18T02:54:02;-4.20;99.90
15717;DHT22;7960;50.908;4.204;2022-12-18T02:56:36;-4.30;99.90
15717;DHT22;7960;50.908;4.204;2022-12-18T02:59:07;-4.60;99.90
15717;DHT22;7960;50.908;4.204;2022-12-18T03:01:38;-4.60;99.90
15717;DHT22;7960;50.908;4.204;2022-12-18T03:04:13;-4.60;99.90
15717;DHT22;7960;50.908;4.204;2022-12-18T03:06:44;-4.60;99.90
15717;DHT22;7960;50.908;4.204;2022-12-18T03:09:14;-4.70;99.90
15717;DHT22;7960;50.908;4.204;2022-12-18T03:11:49;-4.70;99.90
15717;DHT22;7960;50.908;4.204;2022-12-18T03:14:34;-4.70;99.90
15717;DHT22;7960;50.908;4.204;2022-12-18T03:17:06;-4.70;99.90
15717;DHT22;7960;50.908;4.204;2022-12-18T03:19:34;-4.70;99.90
15717;DHT22;7960;50.908;4.204;2022-12-18T03:22:06;-4.80;99.90
15717;DHT22;7960;50.908;4.204;2022-12-18T03:24:35;-4.70;99.90
15717;DHT22;7960;50.908;4.204;2022-12-18T03:27:10;-4.80;99.90
15717;DHT22;7960;50.908;4.204;2022-12-18T03:29:40;-4.80;99.90
15717;DHT22;7960;50.908;4.204;2022-12-18T03:32:11;-4.70;99.90
15717;DHT22;7960;50.908;4.204;2022-12-18T03:34:40;-4.80;99.90
15717;DHT22;7960;50.908;4.204;2022-12-18T03:37:08;-4.70;99.90
15717;DHT22;7960;50.908;4.204;2022-12-18T03:39:35;-4.70;99.90
15717;DHT22;7960;50.908;4.204;2022-12-18T03:42:08;-4.70;99.90
15717;DHT22;7960;50.908;4.204;2022-12-18T03:44:44;-4.80;99.90
15717;DHT22;7960;50.908;4.204;2022-12-18T03:47:15;-4.80;99.90
15717;DHT22;7960;50.908;4.204;2022-12-18T03:49:47;-4.80;99.90
15717;DHT22;7960;50.908;4.204;2022-12-18T03:52:20;-4.80;99.90
15717;DHT22;7960;50.908;4.204;2022-12-18T03:54:52;-4.80;99.90
15717;DHT22;7960;50.908;4.204;2022-12-18T03:57:26;-4.80;99.90
15717;DHT22;7960;50.908;4.204;2022-12-18T03:59:56;-4.70;99.90
15717;DHT22;7960;50.908;4.204;2022-12-18T04:02:24;-4.70;99.90
15717;DHT22;7960;50.908;4.204;2022-12-18T04:04:53;-4.70;99.90
15717;DHT22;7960;50.908;4.204;2022-12-18T04:07:23;-4.70;99.90
15717;DHT22;7960;50.908;4.204;2022-12-18T04:09:53;-4.70;99.90
15717;DHT22;7960;50.908;4.204;2022-12-18T04:12:24;-4.60;99.90
15717;DHT22;7960;50.908;4.204;2022-12-18T04:14:51;-4.50;99.90
15717;DHT22;7960;50.908;4.204;2022-12-18T04:17:17;-4.60;99.90
15717;DHT22;7960;50.908;4.204;2022-12-18T04:19:44;-4.60;99.90
15717;DHT22;7960;50.908;4.204;2022-12-18T04:22:11;-4.70;99.90
15717;DHT22;7960;50.908;4.204;2022-12-18T04:24:38;-4.70;99.90
15717;DHT22;7960;50.908;4.204;2022-12-18T04:27:05;-4.60;99.90
15717;DHT22;7960;50.908;4.204;2022-12-18T04:29:33;-4.50;99.90
15717;DHT22;7960;50.908;4.204;2022-12-18T04:32:00;-4.50;99.90
15717;DHT22;7960;50.908;4.204;2022-12-18T04:34:27;-4.60;99.90
15717;DHT22;7960;50.908;4.204;2022-12-18T04:36:54;-4.70;99.90
15717;DHT22;7960;50.908;4.204;2022-12-18T04:39:21;-4.70;99.90
15717;DHT22;7960;50.908;4.204;2022-12-18T04:41:48;-4.70;99.90
15717;DHT22;7960;50.908;4.204;2022-12-18T04:44:14;-4.60;99.90
15717;DHT22;7960;50.908;4.204;2022-12-18T04:46:43;-4.60;99.90
15717;DHT22;7960;50.908;4.204;2022-12-18T04:49:10;-4.70;99.90
15717;DHT22;7960;50.908;4.204;2022-12-18T04:51:37;-4.70;99.90
15717;DHT22;7960;50.908;4.204;2022-12-18T04:54:04;-4.70;99.90
15717;DHT22;7960;50.908;4.204;2022-12-18T04:56:31;-4.70;99.90
15717;DHT22;7960;50.908;4.204;2022-12-18T04:58:58;-4.80;99.90
15717;DHT22;7960;50.908;4.204;2022-12-18T05:01:25;-4.80;99.90
15717;DHT22;7960;50.908;4.204;2022-12-18T05:03:53;-4.80;99.90
15717;DHT22;7960;50.908;4.204;2022-12-18T05:06:20;-4.70;99.90
15717;DHT22;7960;50.908;4.204;2022-12-18T05:08:47;-4.70;99.90
15717;DHT22;7960;50.908;4.204;2022-12-18T05:11:14;-4.70;99.90
15717;DHT22;7960;50.908;4.204;2022-12-18T05:13:43;-4.70;99.90
15717;DHT22;7960;50.908;4.204;2022-12-18T05:16:11;-4.80;99.90
15717;DHT22;7960;50.908;4.204;2022-12-18T05:18:39;-4.70;99.90
15717;DHT22;7960;50.908;4.204;2022-12-18T05:21:08;-4.70;99.90
15717;DHT22;7960;50.908;4.204;2022-12-18T05:23:35;-4.70;99.90
15717;DHT22;7960;50.908;4.204;2022-12-18T05:26:04;-4.70;99.90
15717;DHT22;7960;50.908;4.204;2022-12-18T05:28:33;-4.70;99.90
15717;DHT22;7960;50.908;4.204;2022-12-18T05:31:01;-4.70;99.90
15717;DHT22;7960;50.908;4.204;2022-12-18T05:33:30;-4.70;99.90
15717;DHT22;7960;50.908;4.204;2022-12-18T05:36:00;-4.70;99.90
15717;DHT22;7960;50.908;4.204;2022-12-18T05:38:29;-4.70;99.90
15717;DHT22;7960;50.908;4.204;2022-12-18T05:40:56;-4.70;99.90
15717;DHT22;7960;50.908;4.204;2022-12-18T05:43:24;-4.60;99.90
15717;DHT22;7960;50.908;4.204;2022-12-18T05:45:51;-4.60;99.90
15717;DHT22;7960;50.908;4.204;2022-12-18T05:48:19;-4.60;99.90
15717;DHT22;7960;50.908;4.204;2022-12-18T05:50:47;-4.60;99.90
15717;DHT22;7960;50.908;4.204;2022-12-18T05:53:15;-4.70;99.90
15717;DHT22;7960;50.908;4.204;2022-12-18T05:55:44;-4.70;99.90
15717;DHT22;7960;50.908;4.204;2022-12-18T05:58:12;-4.70;99.90
15717;DHT22;7960;50.908;4.204;2022-12-18T06:00:41;-4.60;99.90
15717;DHT22;7960;50.908;4.204;2022-12-18T06:03:09;-4.50;99.90
15717;DHT22;7960;50.908;4.204;2022-12-18T06:05:36;-4.50;99.90
15717;DHT22;7960;50.908;4.204;2022-12-18T06:08:04;-4.50;99.90
15717;DHT22;7960;50.908;4.204;2022-12-18T06:10:31;-4.50;99.90
15717;DHT22;7960;50.908;4.204;2022-12-18T06:12:59;-4.40;99.90
15717;DHT22;7960;50.908;4.204;2022-12-18T06:15:26;-4.40;99.90
15717;DHT22;7960;50.908;4.204;2022-12-18T06:17:52;-4.30;99.90
15717;DHT22;7960;50.908;4.204;2022-12-18T06:20:20;-4.30;99.90
15717;DHT22;7960;50.908;4.204;2022-12-18T06:22:47;-4.30;99.90
15717;DHT22;7960;50.908;4.204;2022-12-18T06:25:13;-4.30;99.90
15717;DHT22;7960;50.908;4.204;2022-12-18T06:27:40;-4.30;99.90
15717;DHT22;7960;50.908;4.204;2022-12-18T06:30:10;-4.20;99.90
15717;DHT22;7960;50.908;4.204;2022-12-18T06:32:37;-4.30;99.90
15717;DHT22;7960;50.908;4.204;2022-12-18T06:35:05;-4.40;99.90
15717;DHT22;7960;50.908;4.204;2022-12-18T06:37:32;-4.50;99.90
15717;DHT22;7960;50.908;4.204;2022-12-18T06:39:59;-4.40;99.90
15717;DHT22;7960;50.908;4.204;2022-12-18T06:42:26;-4.40;99.90
15717;DHT22;7960;50.908;4.204;2022-12-18T06:44:54;-4.30;99.90
15717;DHT22;7960;50.908;4.204;2022-12-18T06:47:23;-4.30;99.90
15717;DHT22;7960;50.908;4.204;2022-12-18T06:49:49;-4.40;99.90
15717;DHT22;7960;50.908;4.204;2022-12-18T06:52:16;-4.60;99.90
15717;DHT22;7960;50.908;4.204;2022-12-18T06:54:43;-4.70;99.90
15717;DHT22;7960;50.908;4.204;2022-12-18T06:57:10;-4.70;99.90
15717;DHT22;7960;50.908;4.204;2022-12-18T06:59:37;-4.80;99.90
15717;DHT22;7960;50.908;4.204;2022-12-18T07:02:04;-4.90;99.90
15717;DHT22;7960;50.908;4.204;2022-12-18T07:04:32;-4.80;99.90
15717;DHT22;7960;50.908;4.204;2022-12-18T07:06:59;-4.70;99.90
15717;DHT22;7960;50.908;4.204;2022-12-18T07:09:26;-4.70;99.90
15717;DHT22;7960;50.908;4.204;2022-12-18T07:11:52;-4.60;99.90
15717;DHT22;7960;50.908;4.204;2022-12-18T07:14:19;-4.50;99.90
15717;DHT22;7960;50.908;4.204;2022-12-18T07:16:46;-4.40;99.90
15717;DHT22;7960;50.908;4.204;2022-12-18T07:19:13;-4.20;99.90
15717;DHT22;7960;50.908;4.204;2022-12-18T07:21:41;-4.10;99.90
15717;DHT22;7960;50.908;4.204;2022-12-18T07:24:08;-4.00;99.90
15717;DHT22;7960;50.908;4.204;2022-12-18T07:26:35;-4.00;99.90
15717;DHT22;7960;50.908;4.204;2022-12-18T07:29:02;-4.00;99.90
15717;DHT22;7960;50.908;4.204;2022-12-18T07:31:29;-4.10;99.90
15717;DHT22;7960;50.908;4.204;2022-12-18T07:33:55;-4.10;99.90
15717;DHT22;7960;50.908;4.204;2022-12-18T07:36:22;-4.20;99.90
15717;DHT22;7960;50.908;4.204;2022-12-18T07:38:51;-4.20;99.90
15717;DHT22;7960;50.908;4.204;2022-12-18T07:41:18;-4.20;99.90
15717;DHT22;7960;50.908;4.204;2022-12-18T07:43:45;-4.20;99.90
15717;DHT22;7960;50.908;4.204;2022-12-18T07:46:13;-4.40;99.90
15717;DHT22;7960;50.908;4.204;2022-12-18T07:48:41;-4.40;99.90
15717;DHT22;7960;50.908;4.204;2022-12-18T07:51:09;-4.30;99.90
15717;DHT22;7960;50.908;4.204;2022-12-18T07:53:36;-4.30;99.90
15717;DHT22;7960;50.908;4.204;2022-12-18T07:56:06;-4.30;99.90
15717;DHT22;7960;50.908;4.204;2022-12-18T07:58:34;-4.40;99.90
15717;DHT22;7960;50.908;4.204;2022-12-18T08:01:04;-4.50;99.90
15717;DHT22;7960;50.908;4.204;2022-12-18T08:03:31;-4.50;99.90
15717;DHT22;7960;50.908;4.204;2022-12-18T08:05:59;-4.50;99.90
15717;DHT22;7960;50.908;4.204;2022-12-18T08:08:26;-4.40;99.90
15717;DHT22;7960;50.908;4.204;2022-12-18T08:10:53;-4.40;99.90
15717;DHT22;7960;50.908;4.204;2022-12-18T08:13:22;-4.30;99.90
15717;DHT22;7960;50.908;4.204;2022-12-18T08:15:56;-4.20;99.90
15717;DHT22;7960;50.908;4.204;2022-12-18T08:18:23;-4.00;99.90
15717;DHT22;7960;50.908;4.204;2022-12-18T08:20:50;-3.80;99.90
15717;DHT22;7960;50.908;4.204;2022-12-18T08:23:17;-3.70;99.90
15717;DHT22;7960;50.908;4.204;2022-12-18T08:25:43;-3.60;99.90
15717;DHT22;7960;50.908;4.204;2022-12-18T08:28:10;-3.40;99.90
15717;DHT22;7960;50.908;4.204;2022-12-18T08:30:38;-3.30;99.90
15717;DHT22;7960;50.908;4.204;2022-12-18T08:33:05;-3.20;99.90
15717;DHT22;7960;50.908;4.204;2022-12-18T08:35:35;-3.10;99.90
15717;DHT22;7960;50.908;4.204;2022-12-18T08:38:02;-3.00;99.90
15717;DHT22;7960;50.908;4.204;2022-12-18T08:40:29;-3.00;99.90
15717;DHT22;7960;50.908;4.204;2022-12-18T08:42:55;-3.00;99.90
15717;DHT22;7960;50.908;4.204;2022-12-18T08:45:41;-2.90;99.90
15717;DHT22;7960;50.908;4.204;2022-12-18T08:48:08;-2.80;99.90
15717;DHT22;7960;50.908;4.204;2022-12-18T08:50:35;-2.70;99.90
15717;DHT22;7960;50.908;4.204;2022-12-18T08:53:02;-2.60;99.90
15717;DHT22;7960;50.908;4.204;2022-12-18T08:55:29;-2.40;99.90
15717;DHT22;7960;50.908;4.204;2022-12-18T08:57:56;-2.30;99.90
15717;DHT22;7960;50.908;4.204;2022-12-18T09:00:22;-2.20;99.90
15717;DHT22;7960;50.908;4.204;2022-12-18T09:02:51;-2.10;99.90
15717;DHT22;7960;50.908;4.204;2022-12-18T09:05:17;-2.00;99.90
15717;DHT22;7960;50.908;4.204;2022-12-18T09:07:44;-2.00;99.90
15717;DHT22;7960;50.908;4.204;2022-12-18T09:10:11;-2.00;99.90
15717;DHT22;7960;50.908;4.204;2022-12-18T09:12:38;-1.90;99.90
15717;DHT22;7960;50.908;4.204;2022-12-18T09:15:05;-1.90;99.90
15717;DHT22;7960;50.908;4.204;2022-12-18T09:17:32;-1.80;99.90
15717;DHT22;7960;50.908;4.204;2022-12-18T09:20:00;-1.80;99.90
15717;DHT22;7960;50.908;4.204;2022-12-18T09:22:27;-1.80;99.90
15717;DHT22;7960;50.908;4.204;2022-12-18T09:24:54;-1.70;99.90
15717;DHT22;7960;50.908;4.204;2022-12-18T09:27:21;-1.70;99.90
15717;DHT22;7960;50.908;4.204;2022-12-18T09:29:48;-1.70;99.90
15717;DHT22;7960;50.908;4.204;2022-12-18T09:32:14;-1.70;99.90
15717;DHT22;7960;50.908;4.204;2022-12-18T09:34:41;-1.70;99.90
15717;DHT22;7960;50.908;4.204;2022-12-18T09:37:10;-1.60;99.90
15717;DHT22;7960;50.908;4.204;2022-12-18T09:39:36;-1.60;99.90
15717;DHT22;7960;50.908;4.204;2022-12-18T09:42:04;-1.60;99.90
15717;DHT22;7960;50.908;4.204;2022-12-18T09:44:35;-1.50;99.90
15717;DHT22;7960;50.908;4.204;2022-12-18T09:47:08;-1.50;99.90
15717;DHT22;7960;50.908;4.204;2022-12-18T09:49:40;-1.50;99.90
15717;DHT22;7960;50.908;4.204;2022-12-18T09:52:14;-1.50;99.90
15717;DHT22;7960;50.908;4.204;2022-12-18T09:54:44;-1.60;99.90
15717;DHT22;7960;50.908;4.204;2022-12-18T09:57:14;-1.50;99.90
15717;DHT22;7960;50.908;4.204;2022-12-18T09:59:42;-1.50;99.90
15717;DHT22;7960;50.908;4.204;2022-12-18T10:02:15;-1.50;99.90
15717;DHT22;7960;50.908;4.204;2022-12-18T10:04:43;-1.50;99.90
15717;DHT22;7960;50.908;4.204;2022-12-18T10:07:19;-1.40;99.90
15717;DHT22;7960;50.908;4.204;2022-12-18T10:09:53;-1.40;99.90
15717;DHT22;7960;50.908;4.204;2022-12-18T10:12:30;-1.40;99.90
15717;DHT22;7960;50.908;4.204;2022-12-18T10:15:04;-1.40;99.90
15717;DHT22;7960;50.908;4.204;2022-12-18T10:17:39;-1.30;99.90
15717;DHT22;7960;50.908;4.204;2022-12-18T10:20:13;-1.30;99.90
15717;DHT22;7960;50.908;4.204;2022-12-18T10:22:50;-1.30;99.90
15717;DHT22;7960;50.908;4.204;2022-12-18T10:25:22;-1.20;99.90
15717;DHT22;7960;50.908;4.204;2022-12-18T10:27:53;-1.30;99.90
15717;DHT22;7960;50.908;4.204;2022-12-18T10:30:23;-1.20;99.90
15717;DHT22;7960;50.908;4.204;2022-12-18T10:32:50;-1.20;99.90
15717;DHT22;7960;50.908;4.204;2022-12-18T10:35:19;-1.10;99.90
15717;DHT22;7960;50.908;4.204;2022-12-18T10:38:06;-1.10;99.90
15717;DHT22;7960;50.908;4.204;2022-12-18T10:40:47;-1.00;99.90
15717;DHT22;7960;50.908;4.204;2022-12-18T10:43:16;-1.00;99.90
15717;DHT22;7960;50.908;4.204;2022-12-18T10:45:58;-1.00;99.90
15717;DHT22;7960;50.908;4.204;2022-12-18T10:48:27;-0.90;99.90
15717;DHT22;7960;50.908;4.204;2022-12-18T10:50:54;-0.90;99.90
15717;DHT22;7960;50.908;4.204;2022-12-18T10:53:24;-0.90;99.90
15717;DHT22;7960;50.908;4.204;2022-12-18T10:55:53;-0.80;99.90
15717;DHT22;7960;50.908;4.204;2022-12-18T10:58:23;-0.80;99.90
15717;DHT22;7960;50.908;4.204;2022-12-18T11:01:06;-0.80;99.90
15717;DHT22;7960;50.908;4.204;2022-12-18T11:03:34;-0.70;99.90
15717;DHT22;7960;50.908;4.204;2022-12-18T11:06:05;-0.60;99.90
15717;DHT22;7960;50.908;4.204;2022-12-18T11:08:34;-0.60;99.90
15717;DHT22;7960;50.908;4.204;2022-12-18T11:11:01;-0.60;99.90
15717;DHT22;7960;50.908;4.204;2022-12-18T11:13:29;-0.50;99.90
15717;DHT22;7960;50.908;4.204;2022-12-18T11:15:57;-0.50;99.90
15717;DHT22;7960;50.908;4.204;2022-12-18T11:18:27;-0.50;99.90
15717;DHT22;7960;50.908;4.204;2022-12-18T11:20:56;-0.40;99.90
15717;DHT22;7960;50.908;4.204;2022-12-18T11:23:24;-0.40;99.90
15717;DHT22;7960;50.908;4.204;2022-12-18T11:25:55;-0.30;99.90
15717;DHT22;7960;50.908;4.204;2022-12-18T11:28:34;-0.40;99.90
15717;DHT22;7960;50.908;4.204;2022-12-18T11:31:24;-0.40;99.90
15717;DHT22;7960;50.908;4.204;2022-12-18T11:34:03;-0.40;99.90
15717;DHT22;7960;50.908;4.204;2022-12-18T11:36:36;-0.30;99.90
15717;DHT22;7960;50.908;4.204;2022-12-18T11:39:11;-0.20;99.90
15717;DHT22;7960;50.908;4.204;2022-12-18T11:41:47;-0.20;99.90
15717;DHT22;7960;50.908;4.204;2022-12-18T11:44:38;-0.30;99.90
15717;DHT22;7960;50.908;4.204;2022-12-18T11:47:13;-0.20;99.90
15717;DHT22;7960;50.908;4.204;2022-12-18T11:49:42;-0.20;99.90
15717;DHT22;7960;50.908;4.204;2022-12-18T11:52:14;-0.20;99.90
15717;DHT22;7960;50.908;4.204;2022-12-18T11:54:42;-0.20;99.90
15717;DHT22;7960;50.908;4.204;2022-12-18T11:57:17;-0.20;99.90
15717;DHT22;7960;50.908;4.204;2022-12-18T11:59:51;-0.10;99.90
15717;DHT22;7960;50.908;4.204;2022-12-18T12:02:33;-0.20;99.90
15717;DHT22;7960;50.908;4.204;2022-12-18T12:05:19;-0.10;99.90
15717;DHT22;7960;50.908;4.204;2022-12-18T12:07:52;-0.10;99.90
15717;DHT22;7960;50.908;4.204;2022-12-18T12:10:32;0.00;99.90
15717;DHT22;7960;50.908;4.204;2022-12-18T12:13:16;0.00;99.90
15717;DHT22;7960;50.908;4.204;2022-12-18T12:15:54;0.00;99.90
15717;DHT22;7960;50.908;4.204;2022-12-18T12:18:28;0.00;99.90
15717;DHT22;7960;50.908;4.204;2022-12-18T12:21:04;0.00;99.90
15717;DHT22;7960;50.908;4.204;2022-12-18T12:23:39;0.10;99.90
15717;DHT22;7960;50.908;4.204;2022-12-18T12:26:10;0.10;99.90
15717;DHT22;7960;50.908;4.204;2022-12-18T12:31:57;0.20;99.90
15717;DHT22;7960;50.908;4.204;2022-12-18T12:34:31;0.20;99.90
15717;DHT22;7960;50.908;4.204;2022-12-18T12:37:11;0.20;99.90
15717;DHT22;7960;50.908;4.204;2022-12-18T12:39:42;0.20;99.90
15717;DHT22;7960;50.908;4.204;2022-12-18T12:42:14;0.30;99.90
15717;DHT22;7960;50.908;4.204;2022-12-18T12:45:02;0.30;99.90
15717;DHT22;7960;50.908;4.204;2022-12-18T12:47:36;0.40;99.90
15717;DHT22;7960;50.908;4.204;2022-12-18T12:50:11;0.30;99.90
15717;DHT22;7960;50.908;4.204;2022-12-18T12:52:42;0.40;99.90
15717;DHT22;7960;50.908;4.204;2022-12-18T12:55:15;0.40;99.90
15717;DHT22;7960;50.908;4.204;2022-12-18T12:57:45;0.40;99.90
15717;DHT22;7960;50.908;4.204;2022-12-18T13:00:16;0.40;99.90
15717;DHT22;7960;50.908;4.204;2022-12-18T13:02:51;0.40;99.90
15717;DHT22;7960;50.908;4.204;2022-12-18T13:05:23;0.50;99.90
15717;DHT22;7960;50.908;4.204;2022-12-18T13:07:56;0.50;99.90
15717;DHT22;7960;50.908;4.204;2022-12-18T13:10:32;0.60;99.90
15717;DHT22;7960;50.908;4.204;2022-12-18T13:13:01;0.60;99.90
15717;DHT22;7960;50.908;4.204;2022-12-18T13:15:33;0.50;99.90
15717;DHT22;7960;50.908;4.204;2022-12-18T13:18:10;0.50;99.90
15717;DHT22;7960;50.908;4.204;2022-12-18T13:20:40;0.50;99.90
15717;DHT22;7960;50.908;4.204;2022-12-18T13:23:25;0.50;99.90
15717;DHT22;7960;50.908;4.204;2022-12-18T13:25:53;0.50;99.90
15717;DHT22;7960;50.908;4.204;2022-12-18T13:28:22;0.50;99.90
15717;DHT22;7960;50.908;4.204;2022-12-18T13:30:55;0.60;99.90
15717;DHT22;7960;50.908;4.204;2022-12-18T13:33:51;0.70;99.90
15717;DHT22;7960;50.908;4.204;2022-12-18T13:36:36;0.60;99.90
15717;DHT22;7960;50.908;4.204;2022-12-18T13:39:23;0.60;99.90
15717;DHT22;7960;50.908;4.204;2022-12-18T13:41:52;0.60;99.90
15717;DHT22;7960;50.908;4.204;2022-12-18T13:44:32;0.60;99.90
15717;DHT22;7960;50.908;4.204;2022-12-18T13:47:00;0.60;99.90
15717;DHT22;7960;50.908;4.204;2022-12-18T13:49:36;0.60;99.90
15717;DHT22;7960;50.908;4.204;2022-12-18T13:52:15;0.60;99.90
15717;DHT22;7960;50.908;4.204;2022-12-18T13:54:47;0.70;99.90
15717;DHT22;7960;50.908;4.204;2022-12-18T13:57:27;0.60;99.90
15717;DHT22;7960;50.908;4.204;2022-12-18T13:59:54;0.60;99.90
15717;DHT22;7960;50.908;4.204;2022-12-18T14:02:23;0.70;99.90
15717;DHT22;7960;50.908;4.204;2022-12-18T14:04:52;0.70;99.90
15717;DHT22;7960;50.908;4.204;2022-12-18T14:07:21;0.70;99.90
15717;DHT22;7960;50.908;4.204;2022-12-18T14:09:50;0.70;99.90
15717;DHT22;7960;50.908;4.204;2022-12-18T14:12:20;0.70;99.90
15717;DHT22;7960;50.908;4.204;2022-12-18T14:15:09;0.70;99.90
15717;DHT22;7960;50.908;4.204;2022-12-18T14:17:42;0.60;99.90
15717;DHT22;7960;50.908;4.204;2022-12-18T14:20:14;0.60;99.90
15717;DHT22;7960;50.908;4.204;2022-12-18T14:22:43;0.60;99.90
15717;DHT22;7960;50.908;4.204;2022-12-18T14:25:17;0.50;99.90
15717;DHT22;7960;50.908;4.204;2022-12-18T14:27:46;0.50;99.90
15717;DHT22;7960;50.908;4.204;2022-12-18T14:30:36;0.40;99.90
15717;DHT22;7960;50.908;4.204;2022-12-18T14:33:05;0.40;99.90
15717;DHT22;7960;50.908;4.204;2022-12-18T14:35:34;0.40;99.90
15717;DHT22;7960;50.908;4.204;2022-12-18T14:38:20;0.40;99.90
15717;DHT22;7960;50.908;4.204;2022-12-18T14:40:51;0.30;99.90
15717;DHT22;7960;50.908;4.204;2022-12-18T14:43:18;0.30;99.90
15717;DHT22;7960;50.908;4.204;2022-12-18T14:45:45;0.30;99.90
15717;DHT22;7960;50.908;4.204;2022-12-18T14:48:16;0.30;99.90
15717;DHT22;7960;50.908;4.204;2022-12-18T14:50:53;0.30;99.90
15717;DHT22;7960;50.908;4.204;2022-12-18T14:53:23;0.30;99.90
15717;DHT22;7960;50.908;4.204;2022-12-18T14:55:52;0.30;99.90
15717;DHT22;7960;50.908;4.204;2022-12-18T14:58:19;0.30;99.90
15717;DHT22;7960;50.908;4.204;2022-12-18T15:00:46;0.30;99.90
15717;DHT22;7960;50.908;4.204;2022-12-18T15:03:18;0.30;99.90
15717;DHT22;7960;50.908;4.204;2022-12-18T15:05:47;0.30;99.90
15717;DHT22;7960;50.908;4.204;2022-12-18T15:08:28;0.30;99.90
15717;DHT22;7960;50.908;4.204;2022-12-18T15:10:55;0.20;99.90
15717;DHT22;7960;50.908;4.204;2022-12-18T15:13:23;0.30;99.90
15717;DHT22;7960;50.908;4.204;2022-12-18T15:15:52;0.30;99.90
15717;DHT22;7960;50.908;4.204;2022-12-18T15:18:21;0.30;99.90
15717;DHT22;7960;50.908;4.204;2022-12-18T15:20:53;0.30;99.90
15717;DHT22;7960;50.908;4.204;2022-12-18T15:23:22;0.30;99.90
15717;DHT22;7960;50.908;4.204;2022-12-18T15:25:55;0.40;99.90
15717;DHT22;7960;50.908;4.204;2022-12-18T15:28:24;0.30;99.90
15717;DHT22;7960;50.908;4.204;2022-12-18T15:31:00;0.30;99.90
15717;DHT22;7960;50.908;4.204;2022-12-18T15:33:31;0.30;99.90
15717;DHT22;7960;50.908;4.204;2022-12-18T15:36:00;0.40;99.90
15717;DHT22;7960;50.908;4.204;2022-12-18T15:38:27;0.40;99.90
15717;DHT22;7960;50.908;4.204;2022-12-18T15:40:54;0.40;99.90
15717;DHT22;7960;50.908;4.204;2022-12-18T15:43:22;0.40;99.90
15717;DHT22;7960;50.908;4.204;2022-12-18T15:46:03;0.40;99.90
15717;DHT22;7960;50.908;4.204;2022-12-18T15:48:31;0.40;99.90
15717;DHT22;7960;50.908;4.204;2022-12-18T15:51:00;0.40;99.90
15717;DHT22;7960;50.908;4.204;2022-12-18T15:53:30;0.40;99.90
15717;DHT22;7960;50.908;4.204;2022-12-18T15:55:59;0.50;99.90
15717;DHT22;7960;50.908;4.204;2022-12-18T15:58:43;0.50;99.90
15717;DHT22;7960;50.908;4.204;2022-12-18T16:01:11;0.50;99.90
15717;DHT22;7960;50.908;4.204;2022-12-18T16:03:38;0.50;99.90
15717;DHT22;7960;50.908;4.204;2022-12-18T16:06:08;0.50;99.90
15717;DHT22;7960;50.908;4.204;2022-12-18T16:08:35;0.50;99.90
15717;DHT22;7960;50.908;4.204;2022-12-18T16:11:02;0.50;99.90
15717;DHT22;7960;50.908;4.204;2022-12-18T16:13:29;0.60;99.90